APL Indonesia — V2EC7 — position and weather

sailwx.info

Track history (hours):
 
Tides and Currents Weather Stations Pressure Air Temp Water Temp Dewpoint Dewpoint Depression Visibility Wind Speed Wind Dir Waves Ship Positions

APL Indonesia

Last reported at 2014-Jun-21 20:33 UTC. Time now 2014-Jul-24 01:54 UTC.
Position N 25°27' W 079°57'.
Warning: this ship's position is 32 days out of date.

Length 261 m; draft 8.8 m.

Type: Ship (hazmat cat B). MMSI: 305386000.

Date/timePositionNaut miles runAvg speedWind from/ knotsBaromVisibWave heightAir tempDewpointWater temp
2014-Jun-21 20:33N 25°27' W 079°57'8 7.8
2014-Jun-21 19:33N 25°35' W 079°60'9 8.7
2014-Jun-21 18:33N 25°43' W 080°03'7 6.5
2014-Jun-21 17:33N 25°46' W 080°09'0 0.1
2014-Jun-21 16:31N 25°46' W 080°09'0 0.0
2014-Jun-21 15:31N 25°46' W 080°09'0 0.0
2014-Jun-21 14:31N 25°46' W 080°09'0 0.0
2014-Jun-21 13:31N 25°46' W 080°09'0 0.0
2014-Jun-21 12:31N 25°46' W 080°09'0 0.0
2014-Jun-21 11:31N 25°46' W 080°09'0 0.0
2014-Jun-21 10:33N 25°46' W 080°09'5 4.7
2014-Jun-21 09:33N 25°46' W 080°04'6 5.6
2014-Jun-21 08:33N 25°48' W 079°59'8 8.1
2014-Jun-21 07:33N 25°55' W 079°54'1313.4
2014-Jun-21 06:34N 26°08' W 079°52'1717.2
2014-Jun-21 05:33N 26°26' W 079°52'1717.3
2014-Jun-21 04:33N 26°43' W 079°52'1717.1
2014-Jun-21 03:33N 27°00' W 079°52'45911.6
2014-Jun-19 12:11N 33°57' W 076°11'1319.9
2014-Jun-19 11:33N 34°04' W 075°58'2619.0
2014-Jun-19 10:12N 34°19' W 075°32'1218.6
2014-Jun-19 09:33N 34°26' W 075°21'1918.9
2014-Jun-19 08:33N 34°39' W 075°04'1818.1
2014-Jun-19 07:33N 34°52' W 074°49'2118.0
2014-Jun-19 06:23N 35°07' W 074°30'3217.7
2014-Jun-19 04:33N 35°38' W 074°22'4120.4
2014-Jun-19 02:33N 36°18' W 074°12'4321.4
2014-Jun-19 00:33N 37°01' W 074°04'14821.2
2014-Jun-18 17:33N 39°29' W 073°51'2019.8
2014-Jun-18 16:33N 39°49' W 073°52'3918.4
2014-Jun-18 14:28N 40°27' W 073°49'1314.0
2014-Jun-18 13:34N 40°35' W 074°02'6 6.4
2014-Jun-18 12:33N 40°39' W 074°09'1 1.3
2014-Jun-18 11:33N 40°41' W 074°09'0 0.0
2014-Jun-18 10:33N 40°41' W 074°09'0 0.0
2014-Jun-18 09:33N 40°41' W 074°09'0 0.0
2014-Jun-18 08:33N 40°41' W 074°09'0 0.0
2014-Jun-18 07:33N 40°41' W 074°09'0 0.0
2014-Jun-18 06:33N 40°41' W 074°09'0 0.0
2014-Jun-18 05:33N 40°41' W 074°09'0 0.0
2014-Jun-18 04:33N 40°41' W 074°09'0 0.0
2014-Jun-18 03:33N 40°41' W 074°09'0 0.0
2014-Jun-18 02:33N 40°41' W 074°09'0 0.0
2014-Jun-18 01:33N 40°41' W 074°09'0 0.0
2014-Jun-18 00:33N 40°41' W 074°09'0 0.0
2014-Jun-17 23:33N 40°41' W 074°09'0 0.0
2014-Jun-17 22:33N 40°41' W 074°09'0 0.0
2014-Jun-17 21:33N 40°41' W 074°09'0 0.0
2014-Jun-17 20:33N 40°41' W 074°09'0 0.0
2014-Jun-17 19:33N 40°41' W 074°09'0 0.0
2014-Jun-17 18:33N 40°41' W 074°09'0 0.0
2014-Jun-17 17:33N 40°41' W 074°09'0 0.0
2014-Jun-17 16:33N 40°41' W 074°09'0 0.0
2014-Jun-17 15:33N 40°41' W 074°09'0 0.0
2014-Jun-17 14:33N 40°41' W 074°09'0 0.0
2014-Jun-17 13:33N 40°41' W 074°09'0 0.0
2014-Jun-17 12:33N 40°41' W 074°09'0 0.0
2014-Jun-17 11:33N 40°41' W 074°09'0 0.0
2014-Jun-17 10:33N 40°41' W 074°09'2 1.8
2014-Jun-17 09:33N 40°39' W 074°09'5 5.3
2014-Jun-17 08:33N 40°37' W 074°03'10 9.7
2014-Jun-17 07:33N 40°29' W 073°55'8 8.1
2014-Jun-17 06:33N 40°28' W 073°44'4 3.7
2014-Jun-17 05:33N 40°29' W 073°39'0 0.1
2014-Jun-17 04:30N 40°29' W 073°40'0 0.1
2014-Jun-17 03:33N 40°29' W 073°40'0 0.0
2014-Jun-17 02:18N 40°29' W 073°40'0 0.0
2014-Jun-17 01:24N 40°29' W 073°40'0 0.0
2014-Jun-17 00:33N 40°29' W 073°40'0 0.0
2014-Jun-16 23:30N 40°29' W 073°40'0 0.0
2014-Jun-16 22:33N 40°29' W 073°40'0 0.1
2014-Jun-16 21:30N 40°29' W 073°40'0 0.0
2014-Jun-16 20:24N 40°29' W 073°40'0 0.2
2014-Jun-16 19:33N 40°29' W 073°40'6 5.5
2014-Jun-16 18:33N 40°25' W 073°44'8 8.5
2014-Jun-16 17:33N 40°16' W 073°45'9 8.8
2014-Jun-16 16:34N 40°07' W 073°44'9 8.9
2014-Jun-16 15:33N 39°59' W 073°43'9 8.9
2014-Jun-16 14:33N 39°50' W 073°41'9 8.8
2014-Jun-16 13:34N 39°41' W 073°40'9 8.8
2014-Jun-16 12:33N 39°32' W 073°41'9 8.9
2014-Jun-16 11:33N 39°23' W 073°42'9 8.7
2014-Jun-16 10:33N 39°15' W 073°42'8 8.2
2014-Jun-16 09:33N 39°07' W 073°43'8 8.0
2014-Jun-16 08:33N 38°58' W 073°43'8 7.9
2014-Jun-16 07:33N 38°51' W 073°43'8 7.7
2014-Jun-16 06:33N 38°43' W 073°44'8 7.8
2014-Jun-16 05:32N 38°35' W 073°45'9 8.0
2014-Jun-16 04:26N 38°26' W 073°44'  
2014-Jun-13 06:33N 26°39' W 079°50'2221.8
2014-Jun-13 05:33N 26°17' W 079°51'2221.7
2014-Jun-13 04:33N 25°55' W 079°53'2221.8
2014-Jun-13 03:33N 25°34' W 079°55'2221.6
2014-Jun-13 02:33N 25°13' W 080°01'2221.6
2014-Jun-13 01:33N 24°55' W 080°15'4321.0
2014-Jun-12 23:32N 24°20' W 080°41'2420.3
2014-Jun-12 22:21N 24°03' W 080°60'  
Track history (hours):
 
Tides and Currents Weather Stations Pressure Air Temp Water Temp Dewpoint Dewpoint Depression Visibility Wind Speed Wind Dir Waves Ship Positions

APL Indonesia

Last reported at 2014-Jun-21 20:33 UTC. Time now 2014-Jul-24 01:54 UTC.
Position N 25°27' W 079°57'.
Warning: this ship's position is 32 days out of date.

Length 261 m; draft 8.8 m.

Type: Ship (hazmat cat B). MMSI: 305386000.

Date/timePositionNaut miles runAvg speedWind from/ knotsBaromVisibWave heightAir tempDewpointWater temp
2014-Jun-21 20:33N 25°27' W 079°57'8 7.8
2014-Jun-21 19:33N 25°35' W 079°60'9 8.7
2014-Jun-21 18:33N 25°43' W 080°03'7 6.5
2014-Jun-21 17:33N 25°46' W 080°09'0 0.1
2014-Jun-21 16:31N 25°46' W 080°09'0 0.0
2014-Jun-21 15:31N 25°46' W 080°09'0 0.0
2014-Jun-21 14:31N 25°46' W 080°09'0 0.0
2014-Jun-21 13:31N 25°46' W 080°09'0 0.0
2014-Jun-21 12:31N 25°46' W 080°09'0 0.0
2014-Jun-21 11:31N 25°46' W 080°09'0 0.0
2014-Jun-21 10:33N 25°46' W 080°09'5 4.7
2014-Jun-21 09:33N 25°46' W 080°04'6 5.6
2014-Jun-21 08:33N 25°48' W 079°59'8 8.1
2014-Jun-21 07:33N 25°55' W 079°54'1313.4
2014-Jun-21 06:34N 26°08' W 079°52'1717.2
2014-Jun-21 05:33N 26°26' W 079°52'1717.3
2014-Jun-21 04:33N 26°43' W 079°52'1717.1
2014-Jun-21 03:33N 27°00' W 079°52'45911.6
2014-Jun-19 12:11N 33°57' W 076°11'1319.9
2014-Jun-19 11:33N 34°04' W 075°58'2619.0
2014-Jun-19 10:12N 34°19' W 075°32'1218.6
2014-Jun-19 09:33N 34°26' W 075°21'1918.9
2014-Jun-19 08:33N 34°39' W 075°04'1818.1
2014-Jun-19 07:33N 34°52' W 074°49'2118.0
2014-Jun-19 06:23N 35°07' W 074°30'3217.7
2014-Jun-19 04:33N 35°38' W 074°22'4120.4
2014-Jun-19 02:33N 36°18' W 074°12'4321.4
2014-Jun-19 00:33N 37°01' W 074°04'14821.2
2014-Jun-18 17:33N 39°29' W 073°51'2019.8
2014-Jun-18 16:33N 39°49' W 073°52'3918.4
2014-Jun-18 14:28N 40°27' W 073°49'1314.0
2014-Jun-18 13:34N 40°35' W 074°02'6 6.4
2014-Jun-18 12:33N 40°39' W 074°09'1 1.3
2014-Jun-18 11:33N 40°41' W 074°09'0 0.0
2014-Jun-18 10:33N 40°41' W 074°09'0 0.0
2014-Jun-18 09:33N 40°41' W 074°09'0 0.0
2014-Jun-18 08:33N 40°41' W 074°09'0 0.0
2014-Jun-18 07:33N 40°41' W 074°09'0 0.0
2014-Jun-18 06:33N 40°41' W 074°09'0 0.0
2014-Jun-18 05:33N 40°41' W 074°09'0 0.0
2014-Jun-18 04:33N 40°41' W 074°09'0 0.0
2014-Jun-18 03:33N 40°41' W 074°09'0 0.0
2014-Jun-18 02:33N 40°41' W 074°09'0 0.0
2014-Jun-18 01:33N 40°41' W 074°09'0 0.0
2014-Jun-18 00:33N 40°41' W 074°09'0 0.0
2014-Jun-17 23:33N 40°41' W 074°09'0 0.0
2014-Jun-17 22:33N 40°41' W 074°09'0 0.0
2014-Jun-17 21:33N 40°41' W 074°09'0 0.0
2014-Jun-17 20:33N 40°41' W 074°09'0 0.0
2014-Jun-17 19:33N 40°41' W 074°09'0 0.0
2014-Jun-17 18:33N 40°41' W 074°09'0 0.0
2014-Jun-17 17:33N 40°41' W 074°09'0 0.0
2014-Jun-17 16:33N 40°41' W 074°09'0 0.0
2014-Jun-17 15:33N 40°41' W 074°09'0 0.0
2014-Jun-17 14:33N 40°41' W 074°09'0 0.0
2014-Jun-17 13:33N 40°41' W 074°09'0 0.0
2014-Jun-17 12:33N 40°41' W 074°09'0 0.0
2014-Jun-17 11:33N 40°41' W 074°09'0 0.0
2014-Jun-17 10:33N 40°41' W 074°09'2 1.8
2014-Jun-17 09:33N 40°39' W 074°09'5 5.3
2014-Jun-17 08:33N 40°37' W 074°03'10 9.7
2014-Jun-17 07:33N 40°29' W 073°55'8 8.1
2014-Jun-17 06:33N 40°28' W 073°44'4 3.7
2014-Jun-17 05:33N 40°29' W 073°39'0 0.1
2014-Jun-17 04:30N 40°29' W 073°40'0 0.1
2014-Jun-17 03:33N 40°29' W 073°40'0 0.0
2014-Jun-17 02:18N 40°29' W 073°40'0 0.0
2014-Jun-17 01:24N 40°29' W 073°40'0 0.0
2014-Jun-17 00:33N 40°29' W 073°40'0 0.0
2014-Jun-16 23:30N 40°29' W 073°40'0 0.0
2014-Jun-16 22:33N 40°29' W 073°40'0 0.1
2014-Jun-16 21:30N 40°29' W 073°40'0 0.0
2014-Jun-16 20:24N 40°29' W 073°40'0 0.2
2014-Jun-16 19:33N 40°29' W 073°40'6 5.5
2014-Jun-16 18:33N 40°25' W 073°44'8 8.5
2014-Jun-16 17:33N 40°16' W 073°45'9 8.8
2014-Jun-16 16:34N 40°07' W 073°44'9 8.9
2014-Jun-16 15:33N 39°59' W 073°43'9 8.9
2014-Jun-16 14:33N 39°50' W 073°41'9 8.8
2014-Jun-16 13:34N 39°41' W 073°40'9 8.8
2014-Jun-16 12:33N 39°32' W 073°41'9 8.9
2014-Jun-16 11:33N 39°23' W 073°42'9 8.7
2014-Jun-16 10:33N 39°15' W 073°42'8 8.2
2014-Jun-16 09:33N 39°07' W 073°43'8 8.0
2014-Jun-16 08:33N 38°58' W 073°43'8 7.9
2014-Jun-16 07:33N 38°51' W 073°43'8 7.7
2014-Jun-16 06:33N 38°43' W 073°44'8 7.8
2014-Jun-16 05:32N 38°35' W 073°45'9 8.0
2014-Jun-16 04:26N 38°26' W 073°44'  
2014-Jun-13 06:33N 26°39' W 079°50'2221.8
2014-Jun-13 05:33N 26°17' W 079°51'2221.7
2014-Jun-13 04:33N 25°55' W 079°53'2221.8
2014-Jun-13 03:33N 25°34' W 079°55'2221.6
2014-Jun-13 02:33N 25°13' W 080°01'2221.6
2014-Jun-13 01:33N 24°55' W 080°15'4321.0
2014-Jun-12 23:32N 24°20' W 080°41'2420.3
2014-Jun-12 22:21N 24°03' W 080°60'  

Dump ship's entire track history